sensor_id;sensor_type;location;lat;lon;timestamp;temperature;humidity
20594;DHT22;10455;48.732;10.266;2023-04-25T00:02:00;5.10;99.90
20594;DHT22;10455;48.732;10.266;2023-04-25T00:07:03;5.30;99.90
20594;DHT22;10455;48.732;10.266;2023-04-25T00:12:06;5.50;99.90
20594;DHT22;10455;48.732;10.266;2023-04-25T00:17:08;5.60;99.90
20594;DHT22;10455;48.732;10.266;2023-04-25T00:22:11;5.70;99.90
20594;DHT22;10455;48.732;10.266;2023-04-25T00:27:13;5.90;99.90
20594;DHT22;10455;48.732;10.266;2023-04-25T00:32:15;6.10;99.90
20594;DHT22;10455;48.732;10.266;2023-04-25T00:37:19;6.00;99.90
20594;DHT22;10455;48.732;10.266;2023-04-25T00:42:21;5.90;99.90
20594;DHT22;10455;48.732;10.266;2023-04-25T00:47:24;5.80;99.90
20594;DHT22;10455;48.732;10.266;2023-04-25T00:52:27;5.90;99.90
20594;DHT22;10455;48.732;10.266;2023-04-25T00:57:29;6.10;99.90
20594;DHT22;10455;48.732;10.266;2023-04-25T01:02:32;6.00;99.90
20594;DHT22;10455;48.732;10.266;2023-04-25T01:07:35;5.90;99.90
20594;DHT22;10455;48.732;10.266;2023-04-25T01:12:37;5.70;99.90
20594;DHT22;10455;48.732;10.266;2023-04-25T01:17:40;5.70;99.90
20594;DHT22;10455;48.732;10.266;2023-04-25T01:22:45;5.40;99.90
20594;DHT22;10455;48.732;10.266;2023-04-25T01:27:47;5.30;99.90
20594;DHT22;10455;48.732;10.266;2023-04-25T01:32:49;5.20;99.90
20594;DHT22;10455;48.732;10.266;2023-04-25T01:37:52;5.00;99.90
20594;DHT22;10455;48.732;10.266;2023-04-25T01:42:54;4.80;99.90
20594;DHT22;10455;48.732;10.266;2023-04-25T01:47:56;5.00;99.90
20594;DHT22;10455;48.732;10.266;2023-04-25T01:53:01;5.10;99.90
20594;DHT22;10455;48.732;10.266;2023-04-25T01:58:04;5.20;99.90
20594;DHT22;10455;48.732;10.266;2023-04-25T02:03:09;5.50;99.90
20594;DHT22;10455;48.732;10.266;2023-04-25T02:08:12;5.60;99.90
20594;DHT22;10455;48.732;10.266;2023-04-25T02:13:14;5.70;99.90
20594;DHT22;10455;48.732;10.266;2023-04-25T02:18:16;5.80;99.90
20594;DHT22;10455;48.732;10.266;2023-04-25T02:23:20;5.80;99.90
20594;DHT22;10455;48.732;10.266;2023-04-25T02:28:22;5.90;99.90
20594;DHT22;10455;48.732;10.266;2023-04-25T02:33:24;6.00;99.90
20594;DHT22;10455;48.732;10.266;2023-04-25T02:38:28;6.00;99.90
20594;DHT22;10455;48.732;10.266;2023-04-25T02:43:29;5.80;99.90
20594;DHT22;10455;48.732;10.266;2023-04-25T02:48:31;5.90;99.90
20594;DHT22;10455;48.732;10.266;2023-04-25T02:53:35;6.20;99.90
20594;DHT22;10455;48.732;10.266;2023-04-25T02:58:37;6.40;99.90
20594;DHT22;10455;48.732;10.266;2023-04-25T03:03:38;6.40;99.90
20594;DHT22;10455;48.732;10.266;2023-04-25T03:08:42;6.30;99.90
20594;DHT22;10455;48.732;10.266;2023-04-25T03:13:44;6.10;99.90
20594;DHT22;10455;48.732;10.266;2023-04-25T03:18:45;6.00;99.90
20594;DHT22;10455;48.732;10.266;2023-04-25T03:23:49;6.00;99.90
20594;DHT22;10455;48.732;10.266;2023-04-25T03:28:50;6.10;99.90
20594;DHT22;10455;48.732;10.266;2023-04-25T03:33:52;6.10;99.90
20594;DHT22;10455;48.732;10.266;2023-04-25T03:38:55;6.00;99.90
20594;DHT22;10455;48.732;10.266;2023-04-25T03:43:57;5.90;99.90
20594;DHT22;10455;48.732;10.266;2023-04-25T03:48:59;5.70;99.90
20594;DHT22;10455;48.732;10.266;2023-04-25T03:54:03;5.70;99.90
20594;DHT22;10455;48.732;10.266;2023-04-25T03:59:05;5.80;99.90
20594;DHT22;10455;48.732;10.266;2023-04-25T04:04:07;5.70;99.90
20594;DHT22;10455;48.732;10.266;2023-04-25T04:09:10;5.90;99.90
20594;DHT22;10455;48.732;10.266;2023-04-25T04:14:13;5.60;99.90
20594;DHT22;10455;48.732;10.266;2023-04-25T04:19:14;5.50;99.90
20594;DHT22;10455;48.732;10.266;2023-04-25T04:24:18;5.40;99.90
20594;DHT22;10455;48.732;10.266;2023-04-25T04:29:20;5.40;99.90
20594;DHT22;10455;48.732;10.266;2023-04-25T04:34:22;5.60;99.90
20594;DHT22;10455;48.732;10.266;2023-04-25T04:39:26;5.80;99.90
20594;DHT22;10455;48.732;10.266;2023-04-25T04:44:29;5.80;99.90
20594;DHT22;10455;48.732;10.266;2023-04-25T04:49:33;5.70;99.90
20594;DHT22;10455;48.732;10.266;2023-04-25T04:54:36;5.80;99.90
20594;DHT22;10455;48.732;10.266;2023-04-25T04:59:38;6.10;99.90
20594;DHT22;10455;48.732;10.266;2023-04-25T05:04:41;6.20;99.90
20594;DHT22;10455;48.732;10.266;2023-04-25T05:09:44;6.20;99.90
20594;DHT22;10455;48.732;10.266;2023-04-25T05:14:46;6.20;99.90
20594;DHT22;10455;48.732;10.266;2023-04-25T05:19:48;6.30;99.90
20594;DHT22;10455;48.732;10.266;2023-04-25T05:24:51;6.70;99.90
20594;DHT22;10455;48.732;10.266;2023-04-25T05:29:53;7.00;99.90
20594;DHT22;10455;48.732;10.266;2023-04-25T05:34:55;7.10;99.90
20594;DHT22;10455;48.732;10.266;2023-04-25T05:39:58;7.00;99.90
20594;DHT22;10455;48.732;10.266;2023-04-25T05:45:00;7.20;99.90
20594;DHT22;10455;48.732;10.266;2023-04-25T05:50:02;7.30;99.90
20594;DHT22;10455;48.732;10.266;2023-04-25T05:55:07;7.30;99.90
20594;DHT22;10455;48.732;10.266;2023-04-25T06:00:10;7.30;99.90
20594;DHT22;10455;48.732;10.266;2023-04-25T06:05:12;8.10;99.90
20594;DHT22;10455;48.732;10.266;2023-04-25T06:10:15;9.30;99.90
20594;DHT22;10455;48.732;10.266;2023-04-25T06:15:17;8.80;99.90
20594;DHT22;10455;48.732;10.266;2023-04-25T06:20:19;8.10;99.90
20594;DHT22;10455;48.732;10.266;2023-04-25T06:25:25;7.90;99.90
20594;DHT22;10455;48.732;10.266;2023-04-25T06:30:27;8.20;99.90
20594;DHT22;10455;48.732;10.266;2023-04-25T06:35:28;7.90;99.90
20594;DHT22;10455;48.732;10.266;2023-04-25T06:40:32;7.70;99.90
20594;DHT22;10455;48.732;10.266;2023-04-25T06:45:33;7.80;99.90
20594;DHT22;10455;48.732;10.266;2023-04-25T06:50:35;7.90;99.90
20594;DHT22;10455;48.732;10.266;2023-04-25T06:55:39;8.10;99.90
20594;DHT22;10455;48.732;10.266;2023-04-25T07:00:41;8.30;99.90
20594;DHT22;10455;48.732;10.266;2023-04-25T07:05:42;8.60;99.90
20594;DHT22;10455;48.732;10.266;2023-04-25T07:10:47;9.60;99.90
20594;DHT22;10455;48.732;10.266;2023-04-25T07:15:49;11.80;99.90
20594;DHT22;10455;48.732;10.266;2023-04-25T07:20:51;13.20;99.90
20594;DHT22;10455;48.732;10.266;2023-04-25T07:25:54;12.50;99.90
20594;DHT22;10455;48.732;10.266;2023-04-25T07:30:56;11.20;99.90
20594;DHT22;10455;48.732;10.266;2023-04-25T07:35:58;12.20;99.90
20594;DHT22;10455;48.732;10.266;2023-04-25T07:41:02;14.90;99.90
20594;DHT22;10455;48.732;10.266;2023-04-25T07:46:04;16.90;99.90
20594;DHT22;10455;48.732;10.266;2023-04-25T07:51:06;16.30;99.90
20594;DHT22;10455;48.732;10.266;2023-04-25T07:56:09;16.70;99.90
20594;DHT22;10455;48.732;10.266;2023-04-25T08:01:11;14.80;99.90
20594;DHT22;10455;48.732;10.266;2023-04-25T08:06:12;12.40;99.90
20594;DHT22;10455;48.732;10.266;2023-04-25T08:11:16;11.30;99.90
20594;DHT22;10455;48.732;10.266;2023-04-25T08:16:18;11.60;99.90
20594;DHT22;10455;48.732;10.266;2023-04-25T08:21:20;12.30;99.90
20594;DHT22;10455;48.732;10.266;2023-04-25T08:26:23;12.80;99.90
20594;DHT22;10455;48.732;10.266;2023-04-25T08:31:25;13.40;99.90
20594;DHT22;10455;48.732;10.266;2023-04-25T08:36:27;12.70;99.90
20594;DHT22;10455;48.732;10.266;2023-04-25T08:41:31;11.50;99.90
20594;DHT22;10455;48.732;10.266;2023-04-25T08:46:33;10.50;99.90
20594;DHT22;10455;48.732;10.266;2023-04-25T08:51:40;10.20;99.90
20594;DHT22;10455;48.732;10.266;2023-04-25T08:56:47;10.90;99.90
20594;DHT22;10455;48.732;10.266;2023-04-25T09:01:50;11.90;99.90
20594;DHT22;10455;48.732;10.266;2023-04-25T09:06:51;11.40;99.90
20594;DHT22;10455;48.732;10.266;2023-04-25T09:11:55;11.00;99.90
20594;DHT22;10455;48.732;10.266;2023-04-25T09:16:58;10.80;99.90
20594;DHT22;10455;48.732;10.266;2023-04-25T09:22:02;9.90;99.90
20594;DHT22;10455;48.732;10.266;2023-04-25T09:27:06;9.90;99.90
20594;DHT22;10455;48.732;10.266;2023-04-25T09:32:17;10.40;99.90
20594;DHT22;10455;48.732;10.266;2023-04-25T09:37:20;10.70;99.90
20594;DHT22;10455;48.732;10.266;2023-04-25T09:42:25;11.70;99.90
20594;DHT22;10455;48.732;10.266;2023-04-25T09:47:27;12.40;99.90
20594;DHT22;10455;48.732;10.266;2023-04-25T09:52:30;11.60;99.90
20594;DHT22;10455;48.732;10.266;2023-04-25T09:57:33;10.30;99.90
20594;DHT22;10455;48.732;10.266;2023-04-25T10:02:35;11.00;99.90
20594;DHT22;10455;48.732;10.266;2023-04-25T10:07:40;11.20;99.90
20594;DHT22;10455;48.732;10.266;2023-04-25T10:12:44;12.00;99.90
20594;DHT22;10455;48.732;10.266;2023-04-25T10:17:47;11.60;99.90
20594;DHT22;10455;48.732;10.266;2023-04-25T10:22:54;11.90;99.90
20594;DHT22;10455;48.732;10.266;2023-04-25T10:27:59;12.30;99.90
20594;DHT22;10455;48.732;10.266;2023-04-25T10:33:01;11.50;99.90
20594;DHT22;10455;48.732;10.266;2023-04-25T10:38:04;11.10;99.90
20594;DHT22;10455;48.732;10.266;2023-04-25T10:43:35;11.50;99.90
20594;DHT22;10455;48.732;10.266;2023-04-25T10:48:38;12.80;99.90
20594;DHT22;10455;48.732;10.266;2023-04-25T10:53:45;14.50;99.90
20594;DHT22;10455;48.732;10.266;2023-04-25T10:58:49;14.00;99.90
20594;DHT22;10455;48.732;10.266;2023-04-25T11:03:57;14.00;99.90
20594;DHT22;10455;48.732;10.266;2023-04-25T11:09:01;13.10;99.90
20594;DHT22;10455;48.732;10.266;2023-04-25T11:14:05;12.80;99.90
20594;DHT22;10455;48.732;10.266;2023-04-25T11:19:06;12.10;99.90
20594;DHT22;10455;48.732;10.266;2023-04-25T11:24:09;11.90;99.90
20594;DHT22;10455;48.732;10.266;2023-04-25T11:29:12;12.50;99.90
20594;DHT22;10455;48.732;10.266;2023-04-25T11:34:17;13.70;99.90
20594;DHT22;10455;48.732;10.266;2023-04-25T11:39:19;14.10;99.90
20594;DHT22;10455;48.732;10.266;2023-04-25T11:44:23;13.70;99.90
20594;DHT22;10455;48.732;10.266;2023-04-25T11:49:30;13.40;99.90
20594;DHT22;10455;48.732;10.266;2023-04-25T11:54:35;13.00;99.90
20594;DHT22;10455;48.732;10.266;2023-04-25T11:59:38;13.20;99.90
20594;DHT22;10455;48.732;10.266;2023-04-25T12:04:41;12.80;99.90
20594;DHT22;10455;48.732;10.266;2023-04-25T12:09:43;13.20;99.90
20594;DHT22;10455;48.732;10.266;2023-04-25T12:14:47;12.80;99.90
20594;DHT22;10455;48.732;10.266;2023-04-25T12:19:49;12.60;99.90
20594;DHT22;10455;48.732;10.266;2023-04-25T12:24:51;12.60;99.90
20594;DHT22;10455;48.732;10.266;2023-04-25T12:29:56;12.60;99.90
20594;DHT22;10455;48.732;10.266;2023-04-25T12:34:58;13.00;99.90
20594;DHT22;10455;48.732;10.266;2023-04-25T12:40:00;12.70;99.90
20594;DHT22;10455;48.732;10.266;2023-04-25T12:45:03;11.70;99.90
20594;DHT22;10455;48.732;10.266;2023-04-25T12:50:06;10.60;99.90
20594;DHT22;10455;48.732;10.266;2023-04-25T12:55:08;9.20;99.90
20594;DHT22;10455;48.732;10.266;2023-04-25T13:00:12;8.30;99.90
20594;DHT22;10455;48.732;10.266;2023-04-25T13:05:18;7.90;99.90
20594;DHT22;10455;48.732;10.266;2023-04-25T13:10:20;8.50;99.90
20594;DHT22;10455;48.732;10.266;2023-04-25T13:15:23;8.80;99.90
20594;DHT22;10455;48.732;10.266;2023-04-25T13:20:26;9.10;99.90
20594;DHT22;10455;48.732;10.266;2023-04-25T13:25:27;9.30;99.90
20594;DHT22;10455;48.732;10.266;2023-04-25T13:30:31;9.50;99.90
20594;DHT22;10455;48.732;10.266;2023-04-25T13:35:33;10.20;99.90
20594;DHT22;10455;48.732;10.266;2023-04-25T13:40:35;10.60;99.90
20594;DHT22;10455;48.732;10.266;2023-04-25T13:45:39;11.70;99.90
20594;DHT22;10455;48.732;10.266;2023-04-25T13:50:41;13.60;99.90
20594;DHT22;10455;48.732;10.266;2023-04-25T13:55:43;14.90;99.90
20594;DHT22;10455;48.732;10.266;2023-04-25T14:00:46;15.00;99.90
20594;DHT22;10455;48.732;10.266;2023-04-25T14:05:48;14.40;99.90
20594;DHT22;10455;48.732;10.266;2023-04-25T14:10:50;14.10;99.90
20594;DHT22;10455;48.732;10.266;2023-04-25T14:15:53;14.00;99.90
20594;DHT22;10455;48.732;10.266;2023-04-25T14:20:56;12.50;99.90
20594;DHT22;10455;48.732;10.266;2023-04-25T14:25:57;12.20;99.90
20594;DHT22;10455;48.732;10.266;2023-04-25T14:31:01;12.10;99.90
20594;DHT22;10455;48.732;10.266;2023-04-25T14:36:03;11.40;99.90
20594;DHT22;10455;48.732;10.266;2023-04-25T14:41:05;11.40;99.90
20594;DHT22;10455;48.732;10.266;2023-04-25T14:46:10;12.80;99.90
20594;DHT22;10455;48.732;10.266;2023-04-25T14:51:12;12.60;99.90
20594;DHT22;10455;48.732;10.266;2023-04-25T14:56:14;10.80;99.90
20594;DHT22;10455;48.732;10.266;2023-04-25T15:01:17;9.20;99.90
20594;DHT22;10455;48.732;10.266;2023-04-25T15:06:20;8.00;99.90
20594;DHT22;10455;48.732;10.266;2023-04-25T15:11:22;7.90;99.90
20594;DHT22;10455;48.732;10.266;2023-04-25T15:16:26;7.70;99.90
20594;DHT22;10455;48.732;10.266;2023-04-25T15:21:28;7.50;99.90
20594;DHT22;10455;48.732;10.266;2023-04-25T15:26:30;7.60;99.90
20594;DHT22;10455;48.732;10.266;2023-04-25T15:31:33;8.10;99.90
20594;DHT22;10455;48.732;10.266;2023-04-25T15:36:35;8.20;99.90
20594;DHT22;10455;48.732;10.266;2023-04-25T15:41:37;8.40;99.90
20594;DHT22;10455;48.732;10.266;2023-04-25T15:46:40;8.30;99.90
20594;DHT22;10455;48.732;10.266;2023-04-25T15:51:43;7.80;99.90
20594;DHT22;10455;48.732;10.266;2023-04-25T15:56:45;7.40;99.90
20594;DHT22;10455;48.732;10.266;2023-04-25T16:01:49;6.90;99.90
20594;DHT22;10455;48.732;10.266;2023-04-25T16:06:50;7.00;99.90
20594;DHT22;10455;48.732;10.266;2023-04-25T16:11:53;7.00;99.90
20594;DHT22;10455;48.732;10.266;2023-04-25T16:16:56;6.80;99.90
20594;DHT22;10455;48.732;10.266;2023-04-25T16:21:58;6.70;99.90
20594;DHT22;10455;48.732;10.266;2023-04-25T16:27:01;6.60;99.90
20594;DHT22;10455;48.732;10.266;2023-04-25T16:32:05;6.50;99.90
20594;DHT22;10455;48.732;10.266;2023-04-25T16:37:07;6.80;99.90
20594;DHT22;10455;48.732;10.266;2023-04-25T16:42:09;7.10;99.90
20594;DHT22;10455;48.732;10.266;2023-04-25T16:47:12;7.40;99.90
20594;DHT22;10455;48.732;10.266;2023-04-25T16:52:14;7.20;99.90
20594;DHT22;10455;48.732;10.266;2023-04-25T16:57:16;7.00;99.90
20594;DHT22;10455;48.732;10.266;2023-04-25T17:02:19;6.90;99.90
20594;DHT22;10455;48.732;10.266;2023-04-25T17:07:21;6.90;99.90
20594;DHT22;10455;48.732;10.266;2023-04-25T17:12:24;6.70;99.90
20594;DHT22;10455;48.732;10.266;2023-04-25T17:17:27;6.60;99.90
20594;DHT22;10455;48.732;10.266;2023-04-25T17:22:29;6.00;99.90
20594;DHT22;10455;48.732;10.266;2023-04-25T17:27:31;5.50;99.90
20594;DHT22;10455;48.732;10.266;2023-04-25T17:32:34;5.50;99.90
20594;DHT22;10455;48.732;10.266;2023-04-25T17:37:36;5.50;99.90
20594;DHT22;10455;48.732;10.266;2023-04-25T17:42:38;5.70;99.90
20594;DHT22;10455;48.732;10.266;2023-04-25T17:47:42;5.90;99.90
20594;DHT22;10455;48.732;10.266;2023-04-25T17:52:44;5.90;99.90
20594;DHT22;10455;48.732;10.266;2023-04-25T17:57:47;5.90;99.90
20594;DHT22;10455;48.732;10.266;2023-04-25T18:02:50;5.60;99.90
20594;DHT22;10455;48.732;10.266;2023-04-25T18:07:52;5.40;99.90
20594;DHT22;10455;48.732;10.266;2023-04-25T18:12:55;5.30;99.90
20594;DHT22;10455;48.732;10.266;2023-04-25T18:17:58;5.50;99.90
20594;DHT22;10455;48.732;10.266;2023-04-25T18:23:02;5.80;99.90
20594;DHT22;10455;48.732;10.266;2023-04-25T18:28:04;6.00;99.90
20594;DHT22;10455;48.732;10.266;2023-04-25T18:33:08;6.10;99.90
20594;DHT22;10455;48.732;10.266;2023-04-25T18:38:10;6.20;99.90
20594;DHT22;10455;48.732;10.266;2023-04-25T18:43:12;6.30;99.90
20594;DHT22;10455;48.732;10.266;2023-04-25T18:48:15;6.30;99.90
20594;DHT22;10455;48.732;10.266;2023-04-25T18:53:17;6.30;99.90
20594;DHT22;10455;48.732;10.266;2023-04-25T18:58:19;6.40;99.90
20594;DHT22;10455;48.732;10.266;2023-04-25T19:03:23;6.20;99.90
20594;DHT22;10455;48.732;10.266;2023-04-25T19:08:25;6.10;99.90
20594;DHT22;10455;48.732;10.266;2023-04-25T19:13:27;6.10;99.90
20594;DHT22;10455;48.732;10.266;2023-04-25T19:18:30;6.10;99.90
20594;DHT22;10455;48.732;10.266;2023-04-25T19:23:32;6.20;99.90
20594;DHT22;10455;48.732;10.266;2023-04-25T19:28:34;6.20;99.90
20594;DHT22;10455;48.732;10.266;2023-04-25T19:33:37;6.20;99.90
20594;DHT22;10455;48.732;10.266;2023-04-25T19:38:40;6.20;99.90
20594;DHT22;10455;48.732;10.266;2023-04-25T19:43:42;6.10;99.90
20594;DHT22;10455;48.732;10.266;2023-04-25T19:48:45;5.90;99.90
20594;DHT22;10455;48.732;10.266;2023-04-25T19:53:47;6.00;99.90
20594;DHT22;10455;48.732;10.266;2023-04-25T19:58:49;5.90;99.90
20594;DHT22;10455;48.732;10.266;2023-04-25T20:03:53;5.80;99.90
20594;DHT22;10455;48.732;10.266;2023-04-25T20:08:55;5.90;99.90
20594;DHT22;10455;48.732;10.266;2023-04-25T20:13:57;5.90;99.90
20594;DHT22;10455;48.732;10.266;2023-04-25T20:19:00;5.90;99.90
20594;DHT22;10455;48.732;10.266;2023-04-25T20:24:02;5.80;99.90
20594;DHT22;10455;48.732;10.266;2023-04-25T20:29:04;5.80;99.90
20594;DHT22;10455;48.732;10.266;2023-04-25T20:34:08;5.90;99.90
20594;DHT22;10455;48.732;10.266;2023-04-25T20:39:10;5.80;99.90
20594;DHT22;10455;48.732;10.266;2023-04-25T20:44:12;5.80;99.90
20594;DHT22;10455;48.732;10.266;2023-04-25T20:49:15;5.80;99.90
20594;DHT22;10455;48.732;10.266;2023-04-25T20:54:17;5.60;99.90
20594;DHT22;10455;48.732;10.266;2023-04-25T20:59:19;5.60;99.90
20594;DHT22;10455;48.732;10.266;2023-04-25T21:04:22;5.60;99.90
20594;DHT22;10455;48.732;10.266;2023-04-25T21:09:24;5.50;99.90
20594;DHT22;10455;48.732;10.266;2023-04-25T21:14:26;5.40;99.90
20594;DHT22;10455;48.732;10.266;2023-04-25T21:19:30;5.20;99.90
20594;DHT22;10455;48.732;10.266;2023-04-25T21:24:31;5.20;99.90
20594;DHT22;10455;48.732;10.266;2023-04-25T21:29:34;5.00;99.90
20594;DHT22;10455;48.732;10.266;2023-04-25T21:34:37;4.90;99.90
20594;DHT22;10455;48.732;10.266;2023-04-25T21:39:39;5.00;99.90
20594;DHT22;10455;48.732;10.266;2023-04-25T21:44:40;5.00;99.90
20594;DHT22;10455;48.732;10.266;2023-04-25T21:49:44;5.00;99.90
20594;DHT22;10455;48.732;10.266;2023-04-25T21:54:45;5.10;99.90
20594;DHT22;10455;48.732;10.266;2023-04-25T21:59:47;5.30;99.90
20594;DHT22;10455;48.732;10.266;2023-04-25T22:04:51;5.40;99.90
20594;DHT22;10455;48.732;10.266;2023-04-25T22:09:52;5.40;99.90
20594;DHT22;10455;48.732;10.266;2023-04-25T22:14:55;5.40;99.90
20594;DHT22;10455;48.732;10.266;2023-04-25T22:19:59;5.50;99.90
20594;DHT22;10455;48.732;10.266;2023-04-25T22:25:26;5.60;99.90
20594;DHT22;10455;48.732;10.266;2023-04-25T22:30:35;5.50;99.90
20594;DHT22;10455;48.732;10.266;2023-04-25T22:35:38;5.50;99.90
20594;DHT22;10455;48.732;10.266;2023-04-25T22:40:40;5.50;99.90
20594;DHT22;10455;48.732;10.266;2023-04-25T22:45:42;5.30;99.90
20594;DHT22;10455;48.732;10.266;2023-04-25T22:50:45;5.30;99.90
20594;DHT22;10455;48.732;10.266;2023-04-25T22:55:54;5.20;99.90
20594;DHT22;10455;48.732;10.266;2023-04-25T23:00:56;5.10;99.90
20594;DHT22;10455;48.732;10.266;2023-04-25T23:05:59;5.30;99.90
20594;DHT22;10455;48.732;10.266;2023-04-25T23:11:04;5.30;99.90
20594;DHT22;10455;48.732;10.266;2023-04-25T23:16:08;5.30;99.90
20594;DHT22;10455;48.732;10.266;2023-04-25T23:21:11;5.30;99.90
20594;DHT22;10455;48.732;10.266;2023-04-25T23:26:14;5.30;99.90
20594;DHT22;10455;48.732;10.266;2023-04-25T23:31:16;5.20;99.90
20594;DHT22;10455;48.732;10.266;2023-04-25T23:36:19;5.10;99.90
20594;DHT22;10455;48.732;10.266;2023-04-25T23:41:21;5.20;99.90
20594;DHT22;10455;48.732;10.266;2023-04-25T23:46:24;5.20;99.90
20594;DHT22;10455;48.732;10.266;2023-04-25T23:51:29;5.30;99.90
20594;DHT22;10455;48.732;10.266;2023-04-25T23:56:31;5.30;99.90
